sensor_id;sensor_type;location;lat;lon;timestamp;pressure;altitude;pressure_sealevel;temperature;humidity
68376;BME280;55318;52.068;5.188;2023-08-30T00:00:40;100910.0;;;14.54;95.9
68376;BME280;55318;52.068;5.188;2023-08-30T00:03:53;100907.0;;;14.47;96.57
68376;BME280;55318;52.068;5.188;2023-08-30T00:05:29;100905.0;;;14.45;97.39
68376;BME280;55318;52.068;5.188;2023-08-30T00:07:06;100901.0;;;14.39;97.4
68376;BME280;55318;52.068;5.188;2023-08-30T00:10:18;100900.0;;;14.41;97.45
68376;BME280;55318;52.068;5.188;2023-08-30T00:11:54;100894.0;;;14.39;97.45
68376;BME280;55318;52.068;5.188;2023-08-30T00:13:31;100887.0;;;14.38;97.35
68376;BME280;55318;52.068;5.188;2023-08-30T00:15:08;100886.0;;;14.42;97.04
68376;BME280;55318;52.068;5.188;2023-08-30T00:18:20;100880.0;;;14.41;97.34
68376;BME280;55318;52.068;5.188;2023-08-30T00:19:56;100880.0;;;14.44;96.57
68376;BME280;55318;52.068;5.188;2023-08-30T00:21:34;100880.0;;;14.45;97.66
68376;BME280;55318;52.068;5.188;2023-08-30T00:24:46;100874.0;;;14.49;97.25
68376;BME280;55318;52.068;5.188;2023-08-30T00:26:22;100873.0;;;14.5;97.46
68376;BME280;55318;52.068;5.188;2023-08-30T00:27:58;100874.0;;;14.54;97.39
68376;BME280;55318;52.068;5.188;2023-08-30T00:31:10;100873.0;;;14.6;97.22
68376;BME280;55318;52.068;5.188;2023-08-30T00:32:46;100868.0;;;14.61;96.82
68376;BME280;55318;52.068;5.188;2023-08-30T00:34:23;100867.0;;;14.62;97.46
68376;BME280;55318;52.068;5.188;2023-08-30T00:35:59;100872.0;;;14.68;96.95
68376;BME280;55318;52.068;5.188;2023-08-30T00:39:12;100868.0;;;14.73;96.72
68376;BME280;55318;52.068;5.188;2023-08-30T00:40:48;100872.0;;;14.74;95.64
68376;BME280;55318;52.068;5.188;2023-08-30T00:42:24;100866.0;;;14.73;96.08
68376;BME280;55318;52.068;5.188;2023-08-30T00:45:38;100863.0;;;14.79;95.25
68376;BME280;55318;52.068;5.188;2023-08-30T00:47:15;100862.0;;;14.83;94.79
68376;BME280;55318;52.068;5.188;2023-08-30T00:48:52;100862.0;;;14.8;95.33
68376;BME280;55318;52.068;5.188;2023-08-30T00:52:07;100863.0;;;14.87;93.91
68376;BME280;55318;52.068;5.188;2023-08-30T00:53:45;100862.0;;;14.9;93.9
68376;BME280;55318;52.068;5.188;2023-08-30T00:55:22;100862.0;;;14.86;93.8
68376;BME280;55318;52.068;5.188;2023-08-30T00:57:00;100859.0;;;14.86;94.03
68376;BME280;55318;52.068;5.188;2023-08-30T01:00:13;100861.0;;;14.87;94.11
68376;BME280;55318;52.068;5.188;2023-08-30T01:01:50;100853.0;;;14.96;93.47
68376;BME280;55318;52.068;5.188;2023-08-30T01:03:27;100858.0;;;15.06;92.84
68376;BME280;55318;52.068;5.188;2023-08-30T01:06:39;100856.0;;;15.02;93.28
68376;BME280;55318;52.068;5.188;2023-08-30T01:08:15;100853.0;;;15.05;93.02
68376;BME280;55318;52.068;5.188;2023-08-30T01:09:51;100852.0;;;15.03;93.45
68376;BME280;55318;52.068;5.188;2023-08-30T01:13:16;100849.0;;;15.05;93.61
68376;BME280;55318;52.068;5.188;2023-08-30T01:14:59;100849.0;;;15.11;92.72
68376;BME280;55318;52.068;5.188;2023-08-30T01:16:37;100846.0;;;15.2;91.99
68376;BME280;55318;52.068;5.188;2023-08-30T01:18:16;100851.0;;;15.14;93.41
68376;BME280;55318;52.068;5.188;2023-08-30T01:20:00;100855.0;;;15.18;92.98
68376;BME280;55318;52.068;5.188;2023-08-30T01:23:37;100850.0;;;15.19;92.77
68376;BME280;55318;52.068;5.188;2023-08-30T01:25:24;100853.0;;;15.15;93.2
68376;BME280;55318;52.068;5.188;2023-08-30T01:27:15;100850.0;;;15.15;94.18
68376;BME280;55318;52.068;5.188;2023-08-30T01:28:52;100853.0;;;15.21;93.02
68376;BME280;55318;52.068;5.188;2023-08-30T01:30:31;100848.0;;;15.22;92.66
68376;BME280;55318;52.068;5.188;2023-08-30T01:33:45;100847.0;;;15.26;92.79
68376;BME280;55318;52.068;5.188;2023-08-30T01:35:22;100850.0;;;15.23;92.92
68376;BME280;55318;52.068;5.188;2023-08-30T01:37:01;100842.0;;;15.29;93.12
68376;BME280;55318;52.068;5.188;2023-08-30T01:40:17;100840.0;;;15.27;93.08
68376;BME280;55318;52.068;5.188;2023-08-30T01:41:55;100845.0;;;15.34;92.36
68376;BME280;55318;52.068;5.188;2023-08-30T01:43:32;100845.0;;;15.44;91.52
68376;BME280;55318;52.068;5.188;2023-08-30T01:45:10;100842.0;;;15.4;91.72
68376;BME280;55318;52.068;5.188;2023-08-30T01:48:25;100839.0;;;15.4;91.29
68376;BME280;55318;52.068;5.188;2023-08-30T01:50:02;100834.0;;;15.37;91.78
68376;BME280;55318;52.068;5.188;2023-08-30T01:51:40;100830.0;;;15.44;91.31
68376;BME280;55318;52.068;5.188;2023-08-30T01:54:53;100834.0;;;15.46;91.14
68376;BME280;55318;52.068;5.188;2023-08-30T01:56:29;100830.0;;;15.46;90.86
68376;BME280;55318;52.068;5.188;2023-08-30T01:58:06;100828.0;;;15.45;90.62
68376;BME280;55318;52.068;5.188;2023-08-30T01:59:43;100826.0;;;15.46;90.71
68376;BME280;55318;52.068;5.188;2023-08-30T02:02:56;100826.0;;;15.44;91.66
68376;BME280;55318;52.068;5.188;2023-08-30T02:04:32;100823.0;;;15.47;91.8
68376;BME280;55318;52.068;5.188;2023-08-30T02:06:11;100818.0;;;15.49;90.09
68376;BME280;55318;52.068;5.188;2023-08-30T02:09:38;100818.0;;;15.64;89.1
68376;BME280;55318;52.068;5.188;2023-08-30T02:11:26;100817.0;;;15.58;89.12
68376;BME280;55318;52.068;5.188;2023-08-30T02:13:04;100816.0;;;15.66;88.57
68376;BME280;55318;52.068;5.188;2023-08-30T02:14:44;100813.0;;;15.69;88.16
68376;BME280;55318;52.068;5.188;2023-08-30T02:16:23;100822.0;;;15.59;89.2
68376;BME280;55318;52.068;5.188;2023-08-30T02:19:42;100824.0;;;15.48;89.92
68376;BME280;55318;52.068;5.188;2023-08-30T02:21:18;100823.0;;;15.48;89.46
68376;BME280;55318;52.068;5.188;2023-08-30T02:22:58;100820.0;;;15.54;89.23
68376;BME280;55318;52.068;5.188;2023-08-30T02:26:10;100817.0;;;15.51;89.16
68376;BME280;55318;52.068;5.188;2023-08-30T02:27:47;100817.0;;;15.53;88.89
68376;BME280;55318;52.068;5.188;2023-08-30T02:29:23;100818.0;;;15.5;88.99
68376;BME280;55318;52.068;5.188;2023-08-30T02:32:35;100814.0;;;15.46;90.19
68376;BME280;55318;52.068;5.188;2023-08-30T02:34:11;100818.0;;;15.44;89.37
68376;BME280;55318;52.068;5.188;2023-08-30T02:35:47;100813.0;;;15.49;88.28
68376;BME280;55318;52.068;5.188;2023-08-30T02:37:23;100811.0;;;15.4;89.35
68376;BME280;55318;52.068;5.188;2023-08-30T02:40:35;100810.0;;;15.45;89.25
68376;BME280;55318;52.068;5.188;2023-08-30T02:42:12;100807.0;;;15.39;89.63
68376;BME280;55318;52.068;5.188;2023-08-30T02:43:48;100802.0;;;15.37;89.81
68376;BME280;55318;52.068;5.188;2023-08-30T02:47:00;100799.0;;;15.32;89.76
68376;BME280;55318;52.068;5.188;2023-08-30T02:48:36;100795.0;;;15.31;89.74
68376;BME280;55318;52.068;5.188;2023-08-30T02:50:12;100796.0;;;15.25;90.29
68376;BME280;55318;52.068;5.188;2023-08-30T02:53:24;100797.0;;;15.34;89.06
68376;BME280;55318;52.068;5.188;2023-08-30T02:55:01;100795.0;;;15.24;89.85
68376;BME280;55318;52.068;5.188;2023-08-30T02:56:37;100786.0;;;15.21;89.8
68376;BME280;55318;52.068;5.188;2023-08-30T02:58:14;100781.0;;;15.14;89.7
68376;BME280;55318;52.068;5.188;2023-08-30T03:01:26;100776.0;;;15.11;89.97
68376;BME280;55318;52.068;5.188;2023-08-30T03:03:03;100776.0;;;15.09;90.24
68376;BME280;55318;52.068;5.188;2023-08-30T03:04:39;100770.0;;;14.9;91.39
68376;BME280;55318;52.068;5.188;2023-08-30T03:07:52;100767.0;;;14.88;91.0
68376;BME280;55318;52.068;5.188;2023-08-30T03:09:29;100762.0;;;14.89;90.93
68376;BME280;55318;52.068;5.188;2023-08-30T03:11:09;100760.0;;;14.84;90.62
68376;BME280;55318;52.068;5.188;2023-08-30T03:14:21;100752.0;;;14.78;91.38
68376;BME280;55318;52.068;5.188;2023-08-30T03:15:57;100752.0;;;14.74;91.32
68376;BME280;55318;52.068;5.188;2023-08-30T03:17:33;100748.0;;;14.67;90.87
68376;BME280;55318;52.068;5.188;2023-08-30T03:19:10;100741.0;;;14.68;91.5
68376;BME280;55318;52.068;5.188;2023-08-30T03:22:23;100743.0;;;14.56;91.53
68376;BME280;55318;52.068;5.188;2023-08-30T03:23:59;100744.0;;;14.53;91.0
68376;BME280;55318;52.068;5.188;2023-08-30T03:25:35;100749.0;;;14.47;92.54
68376;BME280;55318;52.068;5.188;2023-08-30T03:28:47;100747.0;;;14.42;92.38
68376;BME280;55318;52.068;5.188;2023-08-30T03:30:23;100747.0;;;14.4;92.58
68376;BME280;55318;52.068;5.188;2023-08-30T03:31:59;100742.0;;;14.38;92.07
68376;BME280;55318;52.068;5.188;2023-08-30T03:35:11;100739.0;;;14.26;92.21
68376;BME280;55318;52.068;5.188;2023-08-30T03:36:48;100732.0;;;14.19;92.54
68376;BME280;55318;52.068;5.188;2023-08-30T03:38:24;100733.0;;;14.1;93.54
68376;BME280;55318;52.068;5.188;2023-08-30T03:41:36;100730.0;;;14.08;93.46
68376;BME280;55318;52.068;5.188;2023-08-30T03:43:12;100725.0;;;14.08;93.8
68376;BME280;55318;52.068;5.188;2023-08-30T03:44:48;100722.0;;;13.97;93.62
68376;BME280;55318;52.068;5.188;2023-08-30T03:46:24;100716.0;;;14.05;93.94
68376;BME280;55318;52.068;5.188;2023-08-30T03:49:36;100709.0;;;14.04;93.58
68376;BME280;55318;52.068;5.188;2023-08-30T03:51:13;100707.0;;;14.01;92.78
68376;BME280;55318;52.068;5.188;2023-08-30T03:52:49;100706.0;;;14.06;93.42
68376;BME280;55318;52.068;5.188;2023-08-30T03:56:01;100705.0;;;14.04;93.24
68376;BME280;55318;52.068;5.188;2023-08-30T03:57:37;100710.0;;;14.02;93.59
68376;BME280;55318;52.068;5.188;2023-08-30T03:59:13;100705.0;;;14.0;93.98
68376;BME280;55318;52.068;5.188;2023-08-30T04:02:25;100701.0;;;14.06;92.99
68376;BME280;55318;52.068;5.188;2023-08-30T04:04:02;100707.0;;;14.02;92.87
68376;BME280;55318;52.068;5.188;2023-08-30T04:05:38;100708.0;;;13.98;93.2
68376;BME280;55318;52.068;5.188;2023-08-30T04:08:50;100703.0;;;14.07;91.9
68376;BME280;55318;52.068;5.188;2023-08-30T04:10:26;100698.0;;;13.95;92.56
68376;BME280;55318;52.068;5.188;2023-08-30T04:12:03;100692.0;;;14.0;91.97
68376;BME280;55318;52.068;5.188;2023-08-30T04:13:39;100693.0;;;13.94;92.88
68376;BME280;55318;52.068;5.188;2023-08-30T04:16:52;100696.0;;;13.86;93.33
68376;BME280;55318;52.068;5.188;2023-08-30T04:18:29;100690.0;;;13.82;93.71
68376;BME280;55318;52.068;5.188;2023-08-30T04:20:06;100693.0;;;13.88;93.45
68376;BME280;55318;52.068;5.188;2023-08-30T04:23:19;100694.0;;;13.78;93.49
68376;BME280;55318;52.068;5.188;2023-08-30T04:24:55;100695.0;;;13.78;93.46
68376;BME280;55318;52.068;5.188;2023-08-30T04:26:31;100689.0;;;13.82;93.07
68376;BME280;55318;52.068;5.188;2023-08-30T04:29:43;100692.0;;;13.82;93.1
68376;BME280;55318;52.068;5.188;2023-08-30T04:31:20;100692.0;;;13.73;94.3
68376;BME280;55318;52.068;5.188;2023-08-30T04:32:56;100689.0;;;13.77;93.68
68376;BME280;55318;52.068;5.188;2023-08-30T04:34:32;100686.0;;;13.73;94.99
68376;BME280;55318;52.068;5.188;2023-08-30T04:37:44;100680.0;;;13.62;94.62
68376;BME280;55318;52.068;5.188;2023-08-30T04:39:20;100673.0;;;13.61;94.28
68376;BME280;55318;52.068;5.188;2023-08-30T04:40:57;100670.0;;;13.67;93.67
68376;BME280;55318;52.068;5.188;2023-08-30T04:44:09;100671.0;;;13.56;95.02
68376;BME280;55318;52.068;5.188;2023-08-30T04:45:47;100669.0;;;13.47;95.33
68376;BME280;55318;52.068;5.188;2023-08-30T04:47:24;100669.0;;;13.45;95.3
68376;BME280;55318;52.068;5.188;2023-08-30T04:50:36;100666.0;;;13.49;94.66
68376;BME280;55318;52.068;5.188;2023-08-30T04:52:12;100667.0;;;13.47;94.82
68376;BME280;55318;52.068;5.188;2023-08-30T04:53:48;100660.0;;;13.38;95.63
68376;BME280;55318;52.068;5.188;2023-08-30T04:55:24;100665.0;;;13.34;95.48
68376;BME280;55318;52.068;5.188;2023-08-30T04:58:36;100664.0;;;13.38;95.77
68376;BME280;55318;52.068;5.188;2023-08-30T05:00:13;100665.0;;;13.38;94.72
68376;BME280;55318;52.068;5.188;2023-08-30T05:01:50;100662.0;;;13.41;95.54
68376;BME280;55318;52.068;5.188;2023-08-30T05:05:02;100659.0;;;13.44;95.43
68376;BME280;55318;52.068;5.188;2023-08-30T05:06:38;100650.0;;;13.57;94.68
68376;BME280;55318;52.068;5.188;2023-08-30T05:08:14;100650.0;;;13.65;93.09
68376;BME280;55318;52.068;5.188;2023-08-30T05:11:26;100652.0;;;13.75;92.48
68376;BME280;55318;52.068;5.188;2023-08-30T05:13:03;100652.0;;;13.83;92.15
68376;BME280;55318;52.068;5.188;2023-08-30T05:14:38;100655.0;;;13.86;92.23
68376;BME280;55318;52.068;5.188;2023-08-30T05:17:51;100649.0;;;13.94;91.38
68376;BME280;55318;52.068;5.188;2023-08-30T05:19:27;100652.0;;;13.94;91.76
68376;BME280;55318;52.068;5.188;2023-08-30T05:21:04;100648.0;;;14.02;91.01
68376;BME280;55318;52.068;5.188;2023-08-30T05:22:40;100649.0;;;14.02;91.4
68376;BME280;55318;52.068;5.188;2023-08-30T05:25:52;100653.0;;;14.06;90.36
68376;BME280;55318;52.068;5.188;2023-08-30T05:27:28;100653.0;;;14.05;90.8
68376;BME280;55318;52.068;5.188;2023-08-30T05:29:04;100650.0;;;14.06;91.05
68376;BME280;55318;52.068;5.188;2023-08-30T05:32:18;100650.0;;;14.07;90.86
68376;BME280;55318;52.068;5.188;2023-08-30T05:33:55;100650.0;;;14.05;91.39
68376;BME280;55318;52.068;5.188;2023-08-30T05:35:31;100658.0;;;14.07;91.35
68376;BME280;55318;52.068;5.188;2023-08-30T05:38:43;100653.0;;;14.02;92.14
68376;BME280;55318;52.068;5.188;2023-08-30T05:40:19;100653.0;;;14.11;91.11
68376;BME280;55318;52.068;5.188;2023-08-30T05:41:55;100651.0;;;14.14;91.62
68376;BME280;55318;52.068;5.188;2023-08-30T05:43:31;100655.0;;;14.13;91.44
68376;BME280;55318;52.068;5.188;2023-08-30T05:46:45;100660.0;;;14.18;92.07
68376;BME280;55318;52.068;5.188;2023-08-30T05:48:22;100662.0;;;14.12;93.4
68376;BME280;55318;52.068;5.188;2023-08-30T05:49:58;100664.0;;;14.16;93.2
68376;BME280;55318;52.068;5.188;2023-08-30T05:53:10;100664.0;;;14.2;93.49
68376;BME280;55318;52.068;5.188;2023-08-30T05:54:46;100664.0;;;14.24;93.77
68376;BME280;55318;52.068;5.188;2023-08-30T05:56:22;100664.0;;;14.41;93.26
68376;BME280;55318;52.068;5.188;2023-08-30T05:59:36;100663.0;;;14.41;93.65
68376;BME280;55318;52.068;5.188;2023-08-30T06:01:13;100659.0;;;14.53;93.26
68376;BME280;55318;52.068;5.188;2023-08-30T06:02:49;100655.0;;;14.56;92.95
68376;BME280;55318;52.068;5.188;2023-08-30T06:04:26;100647.0;;;14.62;93.16
68376;BME280;55318;52.068;5.188;2023-08-30T06:07:38;100641.0;;;14.63;93.88
68376;BME280;55318;52.068;5.188;2023-08-30T06:09:14;100642.0;;;14.77;93.5
68376;BME280;55318;52.068;5.188;2023-08-30T06:10:50;100635.0;;;14.76;93.75
68376;BME280;55318;52.068;5.188;2023-08-30T06:14:02;100630.0;;;14.84;94.2
68376;BME280;55318;52.068;5.188;2023-08-30T06:15:38;100628.0;;;14.84;94.66
68376;BME280;55318;52.068;5.188;2023-08-30T06:17:14;100633.0;;;14.87;94.77
68376;BME280;55318;52.068;5.188;2023-08-30T06:20:27;100633.0;;;14.88;95.39
68376;BME280;55318;52.068;5.188;2023-08-30T06:22:03;100640.0;;;14.78;97.39
68376;BME280;55318;52.068;5.188;2023-08-30T06:23:41;100638.0;;;14.8;98.25
68376;BME280;55318;52.068;5.188;2023-08-30T06:26:53;100640.0;;;14.79;99.17
68376;BME280;55318;52.068;5.188;2023-08-30T06:28:29;100641.0;;;14.85;99.06
68376;BME280;55318;52.068;5.188;2023-08-30T06:30:06;100636.0;;;14.81;100.0
68376;BME280;55318;52.068;5.188;2023-08-30T06:31:42;100630.0;;;14.74;100.0
68376;BME280;55318;52.068;5.188;2023-08-30T06:34:56;100628.0;;;14.79;100.0
68376;BME280;55318;52.068;5.188;2023-08-30T06:36:32;100630.0;;;14.75;100.0
68376;BME280;55318;52.068;5.188;2023-08-30T06:38:08;100622.0;;;14.75;100.0
68376;BME280;55318;52.068;5.188;2023-08-30T06:41:20;100617.0;;;14.86;100.0
68376;BME280;55318;52.068;5.188;2023-08-30T06:42:56;100620.0;;;14.71;100.0
68376;BME280;55318;52.068;5.188;2023-08-30T06:44:32;100616.0;;;14.64;100.0
68376;BME280;55318;52.068;5.188;2023-08-30T06:47:45;100610.0;;;14.78;100.0
68376;BME280;55318;52.068;5.188;2023-08-30T06:49:21;100609.0;;;14.75;100.0
68376;BME280;55318;52.068;5.188;2023-08-30T06:50:57;100610.0;;;14.73;100.0
68376;BME280;55318;52.068;5.188;2023-08-30T06:52:34;100605.0;;;14.68;100.0
68376;BME280;55318;52.068;5.188;2023-08-30T06:55:46;100605.0;;;14.81;100.0
68376;BME280;55318;52.068;5.188;2023-08-30T06:57:32;100608.0;;;14.77;100.0
68376;BME280;55318;52.068;5.188;2023-08-30T06:59:09;100605.0;;;14.72;100.0
68376;BME280;55318;52.068;5.188;2023-08-30T07:02:21;100603.0;;;14.69;100.0
68376;BME280;55318;52.068;5.188;2023-08-30T07:03:57;100605.0;;;14.75;100.0
68376;BME280;55318;52.068;5.188;2023-08-30T07:05:33;100599.0;;;14.75;100.0
68376;BME280;55318;52.068;5.188;2023-08-30T07:08:47;100600.0;;;14.78;100.0
68376;BME280;55318;52.068;5.188;2023-08-30T07:10:23;100601.0;;;14.8;100.0
68376;BME280;55318;52.068;5.188;2023-08-30T07:12:00;100595.0;;;14.74;100.0
68376;BME280;55318;52.068;5.188;2023-08-30T07:13:36;100590.0;;;14.84;100.0
68376;BME280;55318;52.068;5.188;2023-08-30T07:16:50;100585.0;;;14.8;100.0
68376;BME280;55318;52.068;5.188;2023-08-30T07:18:26;100588.0;;;14.79;100.0
68376;BME280;55318;52.068;5.188;2023-08-30T07:20:02;100580.0;;;14.88;100.0
68376;BME280;55318;52.068;5.188;2023-08-30T07:23:16;100581.0;;;14.82;100.0
68376;BME280;55318;52.068;5.188;2023-08-30T07:24:52;100576.0;;;14.85;100.0
68376;BME280;55318;52.068;5.188;2023-08-30T07:26:28;100585.0;;;15.01;100.0
68376;BME280;55318;52.068;5.188;2023-08-30T07:29:41;100580.0;;;15.03;100.0
68376;BME280;55318;52.068;5.188;2023-08-30T07:31:17;100577.0;;;15.08;100.0
68376;BME280;55318;52.068;5.188;2023-08-30T07:32:53;100568.0;;;15.08;100.0
68376;BME280;55318;52.068;5.188;2023-08-30T07:34:29;100566.0;;;15.1;100.0
68376;BME280;55318;52.068;5.188;2023-08-30T07:37:42;100564.0;;;15.08;100.0
68376;BME280;55318;52.068;5.188;2023-08-30T07:39:18;100560.0;;;15.16;100.0
68376;BME280;55318;52.068;5.188;2023-08-30T07:40:54;100557.0;;;15.13;100.0
68376;BME280;55318;52.068;5.188;2023-08-30T07:44:06;100550.0;;;15.09;100.0
68376;BME280;55318;52.068;5.188;2023-08-30T07:45:42;100550.0;;;15.08;100.0
68376;BME280;55318;52.068;5.188;2023-08-30T07:47:18;100539.0;;;15.14;100.0
68376;BME280;55318;52.068;5.188;2023-08-30T07:50:31;100540.0;;;15.17;100.0
68376;BME280;55318;52.068;5.188;2023-08-30T07:52:07;100541.0;;;15.19;100.0
68376;BME280;55318;52.068;5.188;2023-08-30T07:53:43;100541.0;;;15.2;100.0
68376;BME280;55318;52.068;5.188;2023-08-30T07:55:19;100535.0;;;15.19;100.0
68376;BME280;55318;52.068;5.188;2023-08-30T07:58:31;100532.0;;;15.2;100.0
68376;BME280;55318;52.068;5.188;2023-08-30T08:00:08;100522.0;;;15.25;100.0
68376;BME280;55318;52.068;5.188;2023-08-30T08:01:45;100521.0;;;15.29;100.0
68376;BME280;55318;52.068;5.188;2023-08-30T08:04:57;100512.0;;;15.26;100.0
68376;BME280;55318;52.068;5.188;2023-08-30T08:06:34;100514.0;;;15.31;100.0
68376;BME280;55318;52.068;5.188;2023-08-30T08:08:10;100511.0;;;15.45;100.0
68376;BME280;55318;52.068;5.188;2023-08-30T08:11:22;100515.0;;;15.47;100.0
68376;BME280;55318;52.068;5.188;2023-08-30T08:12:58;100522.0;;;15.37;100.0
68376;BME280;55318;52.068;5.188;2023-08-30T08:14:34;100520.0;;;15.38;100.0
68376;BME280;55318;52.068;5.188;2023-08-30T08:17:47;100522.0;;;15.39;100.0
68376;BME280;55318;52.068;5.188;2023-08-30T08:19:24;100520.0;;;15.44;100.0
68376;BME280;55318;52.068;5.188;2023-08-30T08:21:00;100518.0;;;15.43;100.0
68376;BME280;55318;52.068;5.188;2023-08-30T08:22:37;100516.0;;;15.41;100.0
68376;BME280;55318;52.068;5.188;2023-08-30T08:25:49;100514.0;;;15.42;100.0
68376;BME280;55318;52.068;5.188;2023-08-30T08:27:25;100515.0;;;15.42;100.0
68376;BME280;55318;52.068;5.188;2023-08-30T08:29:01;100515.0;;;15.35;100.0
68376;BME280;55318;52.068;5.188;2023-08-30T08:32:14;100523.0;;;15.46;100.0
68376;BME280;55318;52.068;5.188;2023-08-30T08:33:51;100524.0;;;15.43;100.0
68376;BME280;55318;52.068;5.188;2023-08-30T08:35:40;100519.0;;;15.45;100.0
68376;BME280;55318;52.068;5.188;2023-08-30T08:37:16;100517.0;;;15.5;100.0
68376;BME280;55318;52.068;5.188;2023-08-30T08:40:28;100514.0;;;15.54;100.0
68376;BME280;55318;52.068;5.188;2023-08-30T08:42:04;100513.0;;;15.65;100.0
68376;BME280;55318;52.068;5.188;2023-08-30T08:43:42;100512.0;;;15.66;100.0
68376;BME280;55318;52.068;5.188;2023-08-30T08:46:55;100509.0;;;15.71;100.0
68376;BME280;55318;52.068;5.188;2023-08-30T08:48:34;100505.0;;;15.74;100.0
68376;BME280;55318;52.068;5.188;2023-08-30T08:50:15;100505.0;;;15.73;100.0
68376;BME280;55318;52.068;5.188;2023-08-30T08:51:51;100502.0;;;15.82;100.0
68376;BME280;55318;52.068;5.188;2023-08-30T08:55:05;100500.0;;;15.88;100.0
68376;BME280;55318;52.068;5.188;2023-08-30T08:56:42;100498.0;;;15.87;100.0
68376;BME280;55318;52.068;5.188;2023-08-30T08:58:19;100496.0;;;15.87;100.0
68376;BME280;55318;52.068;5.188;2023-08-30T09:01:33;100499.0;;;15.88;100.0
68376;BME280;55318;52.068;5.188;2023-08-30T09:03:11;100496.0;;;15.85;100.0
68376;BME280;55318;52.068;5.188;2023-08-30T09:04:46;100497.0;;;15.89;100.0
68376;BME280;55318;52.068;5.188;2023-08-30T09:08:00;100491.0;;;15.93;100.0
68376;BME280;55318;52.068;5.188;2023-08-30T09:09:38;100495.0;;;16.04;100.0
68376;BME280;55318;52.068;5.188;2023-08-30T09:11:14;100497.0;;;15.98;100.0
68376;BME280;55318;52.068;5.188;2023-08-30T09:12:50;100499.0;;;16.06;100.0
68376;BME280;55318;52.068;5.188;2023-08-30T09:16:03;100500.0;;;16.09;100.0
68376;BME280;55318;52.068;5.188;2023-08-30T09:17:46;100499.0;;;16.15;100.0
68376;BME280;55318;52.068;5.188;2023-08-30T09:22:42;100494.0;;;16.14;100.0
68376;BME280;55318;52.068;5.188;2023-08-30T09:24:19;100488.0;;;16.25;100.0
68376;BME280;55318;52.068;5.188;2023-08-30T09:25:55;100488.0;;;16.23;100.0
68376;BME280;55318;52.068;5.188;2023-08-30T09:27:32;100482.0;;;16.28;100.0
68376;BME280;55318;52.068;5.188;2023-08-30T09:30:49;100475.0;;;16.31;100.0
68376;BME280;55318;52.068;5.188;2023-08-30T09:32:24;100478.0;;;16.5;100.0
68376;BME280;55318;52.068;5.188;2023-08-30T09:34:00;100475.0;;;16.53;100.0
68376;BME280;55318;52.068;5.188;2023-08-30T09:37:20;100477.0;;;16.61;100.0
68376;BME280;55318;52.068;5.188;2023-08-30T09:38:57;100480.0;;;16.75;100.0
68376;BME280;55318;52.068;5.188;2023-08-30T09:40:33;100482.0;;;16.84;100.0
68376;BME280;55318;52.068;5.188;2023-08-30T09:42:09;100485.0;;;16.88;100.0
68376;BME280;55318;52.068;5.188;2023-08-30T09:45:22;100482.0;;;17.0;100.0
68376;BME280;55318;52.068;5.188;2023-08-30T09:46:58;100480.0;;;17.11;100.0
68376;BME280;55318;52.068;5.188;2023-08-30T09:48:37;100474.0;;;17.27;100.0
68376;BME280;55318;52.068;5.188;2023-08-30T09:51:54;100476.0;;;17.32;100.0
68376;BME280;55318;52.068;5.188;2023-08-30T09:53:33;100475.0;;;17.41;100.0
68376;BME280;55318;52.068;5.188;2023-08-30T09:55:14;100476.0;;;17.46;100.0
68376;BME280;55318;52.068;5.188;2023-08-30T09:56:50;100474.0;;;17.45;100.0
68376;BME280;55318;52.068;5.188;2023-08-30T10:00:05;100466.0;;;17.7;100.0
68376;BME280;55318;52.068;5.188;2023-08-30T10:01:42;100467.0;;;17.86;100.0
68376;BME280;55318;52.068;5.188;2023-08-30T10:03:19;100464.0;;;18.0;100.0
68376;BME280;55318;52.068;5.188;2023-08-30T10:06:35;100470.0;;;18.11;100.0
68376;BME280;55318;52.068;5.188;2023-08-30T10:08:13;100471.0;;;18.2;100.0
68376;BME280;55318;52.068;5.188;2023-08-30T10:09:50;100474.0;;;18.37;100.0
68376;BME280;55318;52.068;5.188;2023-08-30T10:11:28;100473.0;;;18.54;100.0
68376;BME280;55318;52.068;5.188;2023-08-30T10:14:41;100477.0;;;18.63;100.0
68376;BME280;55318;52.068;5.188;2023-08-30T10:16:19;100480.0;;;18.86;100.0
68376;BME280;55318;52.068;5.188;2023-08-30T10:17:58;100482.0;;;18.77;99.31
68376;BME280;55318;52.068;5.188;2023-08-30T10:21:14;100487.0;;;18.79;98.83
68376;BME280;55318;52.068;5.188;2023-08-30T10:22:56;100489.0;;;18.95;98.97
68376;BME280;55318;52.068;5.188;2023-08-30T10:24:38;100492.0;;;18.91;97.02
68376;BME280;55318;52.068;5.188;2023-08-30T10:26:16;100496.0;;;19.18;100.0
68376;BME280;55318;52.068;5.188;2023-08-30T10:29:32;100500.0;;;19.25;99.82
68376;BME280;55318;52.068;5.188;2023-08-30T10:31:12;100503.0;;;19.13;94.29
68376;BME280;55318;52.068;5.188;2023-08-30T10:32:49;100507.0;;;19.32;95.38
68376;BME280;55318;52.068;5.188;2023-08-30T10:34:31;100503.0;;;19.31;94.11
68376;BME280;55318;52.068;5.188;2023-08-30T10:37:53;100506.0;;;19.5;95.23
68376;BME280;55318;52.068;5.188;2023-08-30T10:39:34;100511.0;;;19.66;92.0
68376;BME280;55318;52.068;5.188;2023-08-30T10:41:11;100515.0;;;19.7;87.03
68376;BME280;55318;52.068;5.188;2023-08-30T10:42:58;100512.0;;;19.68;85.25
68376;BME280;55318;52.068;5.188;2023-08-30T10:46:10;100514.0;;;19.87;86.52
68376;BME280;55318;52.068;5.188;2023-08-30T10:47:54;100510.0;;;20.0;89.02
68376;BME280;55318;52.068;5.188;2023-08-30T10:49:39;100513.0;;;20.02;86.02
68376;BME280;55318;52.068;5.188;2023-08-30T10:51:21;100509.0;;;20.07;84.11
68376;BME280;55318;52.068;5.188;2023-08-30T10:54:37;100518.0;;;19.96;84.17
68376;BME280;55318;52.068;5.188;2023-08-30T10:56:13;100519.0;;;19.84;80.78
68376;BME280;55318;52.068;5.188;2023-08-30T10:57:58;100520.0;;;19.72;86.55
68376;BME280;55318;52.068;5.188;2023-08-30T10:59:35;100519.0;;;19.62;86.96
68376;BME280;55318;52.068;5.188;2023-08-30T11:02:49;100522.0;;;19.72;84.93
68376;BME280;55318;52.068;5.188;2023-08-30T11:04:26;100524.0;;;19.53;85.05
68376;BME280;55318;52.068;5.188;2023-08-30T11:06:03;100527.0;;;19.32;84.75
68376;BME280;55318;52.068;5.188;2023-08-30T11:09:16;100534.0;;;19.32;85.84